sensor_id;sensor_type;location;lat;lon;timestamp;temperature;humidity
6496;DHT22;3281;47.658;9.166;2023-02-01T00:00:09;5.60;1.00
6496;DHT22;3281;47.658;9.166;2023-02-01T00:02:37;5.70;1.00
6496;DHT22;3281;47.658;9.166;2023-02-01T00:05:06;5.70;1.00
6496;DHT22;3281;47.658;9.166;2023-02-01T00:07:33;5.60;1.00
6496;DHT22;3281;47.658;9.166;2023-02-01T00:10:00;5.70;1.00
6496;DHT22;3281;47.658;9.166;2023-02-01T00:12:28;5.70;1.00
6496;DHT22;3281;47.658;9.166;2023-02-01T00:14:57;5.70;1.00
6496;DHT22;3281;47.658;9.166;2023-02-01T00:17:24;5.70;1.00
6496;DHT22;3281;47.658;9.166;2023-02-01T00:19:51;5.70;1.00
6496;DHT22;3281;47.658;9.166;2023-02-01T00:22:18;5.70;1.00
6496;DHT22;3281;47.658;9.166;2023-02-01T00:24:44;5.60;1.00
6496;DHT22;3281;47.658;9.166;2023-02-01T00:27:11;5.60;1.00
6496;DHT22;3281;47.658;9.166;2023-02-01T00:29:43;5.50;1.00
6496;DHT22;3281;47.658;9.166;2023-02-01T00:32:11;5.60;1.00
6496;DHT22;3281;47.658;9.166;2023-02-01T00:34:38;5.60;1.00
6496;DHT22;3281;47.658;9.166;2023-02-01T00:37:04;5.50;1.00
6496;DHT22;3281;47.658;9.166;2023-02-01T00:39:31;5.50;1.00
6496;DHT22;3281;47.658;9.166;2023-02-01T00:41:58;5.50;1.00
6496;DHT22;3281;47.658;9.166;2023-02-01T00:44:25;5.50;1.00
6496;DHT22;3281;47.658;9.166;2023-02-01T00:46:52;5.50;1.00
6496;DHT22;3281;47.658;9.166;2023-02-01T00:49:20;5.50;1.00
6496;DHT22;3281;47.658;9.166;2023-02-01T00:51:47;5.40;1.00
6496;DHT22;3281;47.658;9.166;2023-02-01T00:54:13;5.30;1.00
6496;DHT22;3281;47.658;9.166;2023-02-01T00:56:40;5.30;1.00
6496;DHT22;3281;47.658;9.166;2023-02-01T00:59:10;5.30;1.00
6496;DHT22;3281;47.658;9.166;2023-02-01T01:01:37;5.40;1.00
6496;DHT22;3281;47.658;9.166;2023-02-01T01:04:03;5.30;1.00
6496;DHT22;3281;47.658;9.166;2023-02-01T01:06:33;5.30;1.00
6496;DHT22;3281;47.658;9.166;2023-02-01T01:09:02;5.30;1.00
6496;DHT22;3281;47.658;9.166;2023-02-01T01:11:31;5.40;1.00
6496;DHT22;3281;47.658;9.166;2023-02-01T01:13:59;5.30;1.00
6496;DHT22;3281;47.658;9.166;2023-02-01T01:16:28;5.20;1.00
6496;DHT22;3281;47.658;9.166;2023-02-01T01:18:55;5.20;1.00
6496;DHT22;3281;47.658;9.166;2023-02-01T01:21:24;5.10;1.00
6496;DHT22;3281;47.658;9.166;2023-02-01T01:23:52;5.10;1.00
6496;DHT22;3281;47.658;9.166;2023-02-01T01:26:20;5.20;1.00
6496;DHT22;3281;47.658;9.166;2023-02-01T01:28:48;5.20;1.00
6496;DHT22;3281;47.658;9.166;2023-02-01T01:31:17;5.30;1.00
6496;DHT22;3281;47.658;9.166;2023-02-01T01:33:46;5.30;1.00
6496;DHT22;3281;47.658;9.166;2023-02-01T01:36:13;5.40;1.00
6496;DHT22;3281;47.658;9.166;2023-02-01T01:38:41;5.30;1.00
6496;DHT22;3281;47.658;9.166;2023-02-01T01:41:13;5.40;1.00
6496;DHT22;3281;47.658;9.166;2023-02-01T01:43:52;5.40;1.00
6496;DHT22;3281;47.658;9.166;2023-02-01T01:46:22;5.30;1.00
6496;DHT22;3281;47.658;9.166;2023-02-01T01:48:52;5.40;1.00
6496;DHT22;3281;47.658;9.166;2023-02-01T01:51:21;5.40;1.00
6496;DHT22;3281;47.658;9.166;2023-02-01T01:53:54;5.40;1.00
6496;DHT22;3281;47.658;9.166;2023-02-01T01:56:24;5.30;1.00
6496;DHT22;3281;47.658;9.166;2023-02-01T01:58:52;5.30;1.00
6496;DHT22;3281;47.658;9.166;2023-02-01T02:01:20;5.30;1.00
6496;DHT22;3281;47.658;9.166;2023-02-01T02:03:47;5.30;1.00
6496;DHT22;3281;47.658;9.166;2023-02-01T02:06:22;5.30;1.00
6496;DHT22;3281;47.658;9.166;2023-02-01T02:08:50;5.40;1.00
6496;DHT22;3281;47.658;9.166;2023-02-01T02:11:17;5.40;1.00
6496;DHT22;3281;47.658;9.166;2023-02-01T02:13:48;5.30;1.00
6496;DHT22;3281;47.658;9.166;2023-02-01T02:16:26;5.30;1.00
6496;DHT22;3281;47.658;9.166;2023-02-01T02:22:14;5.10;1.00
6496;DHT22;3281;47.658;9.166;2023-02-01T02:24:59;5.20;1.00
6496;DHT22;3281;47.658;9.166;2023-02-01T02:27:40;5.20;1.00
6496;DHT22;3281;47.658;9.166;2023-02-01T02:30:34;5.10;1.00
6496;DHT22;3281;47.658;9.166;2023-02-01T02:33:23;5.20;1.00
6496;DHT22;3281;47.658;9.166;2023-02-01T02:36:00;5.30;1.00
6496;DHT22;3281;47.658;9.166;2023-02-01T02:38:32;5.40;1.00
6496;DHT22;3281;47.658;9.166;2023-02-01T02:41:07;5.30;1.00
6496;DHT22;3281;47.658;9.166;2023-02-01T02:43:41;5.40;1.00
6496;DHT22;3281;47.658;9.166;2023-02-01T02:46:40;5.30;1.00
6496;DHT22;3281;47.658;9.166;2023-02-01T02:49:34;5.20;1.00
6496;DHT22;3281;47.658;9.166;2023-02-01T02:52:05;5.10;1.00
6496;DHT22;3281;47.658;9.166;2023-02-01T02:55:05;5.10;1.00
6496;DHT22;3281;47.658;9.166;2023-02-01T02:57:36;5.10;1.00
6496;DHT22;3281;47.658;9.166;2023-02-01T03:00:24;5.10;1.00
6496;DHT22;3281;47.658;9.166;2023-02-01T03:03:09;5.10;1.00
6496;DHT22;3281;47.658;9.166;2023-02-01T03:05:55;5.10;1.00
6496;DHT22;3281;47.658;9.166;2023-02-01T03:08:23;5.00;1.00
6496;DHT22;3281;47.658;9.166;2023-02-01T03:10:55;4.90;1.00
6496;DHT22;3281;47.658;9.166;2023-02-01T03:13:30;4.80;1.00
6496;DHT22;3281;47.658;9.166;2023-02-01T03:16:00;4.90;1.00
6496;DHT22;3281;47.658;9.166;2023-02-01T03:18:33;4.80;1.00
6496;DHT22;3281;47.658;9.166;2023-02-01T03:21:07;4.80;1.00
6496;DHT22;3281;47.658;9.166;2023-02-01T03:23:36;4.70;1.00
6496;DHT22;3281;47.658;9.166;2023-02-01T03:26:05;4.70;1.00
6496;DHT22;3281;47.658;9.166;2023-02-01T03:28:34;4.60;1.00
6496;DHT22;3281;47.658;9.166;2023-02-01T03:31:02;4.70;1.00
6496;DHT22;3281;47.658;9.166;2023-02-01T03:33:30;4.80;1.00
6496;DHT22;3281;47.658;9.166;2023-02-01T03:36:07;4.80;1.00
6496;DHT22;3281;47.658;9.166;2023-02-01T03:38:39;4.80;1.00
6496;DHT22;3281;47.658;9.166;2023-02-01T03:41:11;4.80;1.00
6496;DHT22;3281;47.658;9.166;2023-02-01T03:43:43;4.70;1.00
6496;DHT22;3281;47.658;9.166;2023-02-01T03:46:18;4.60;1.00
6496;DHT22;3281;47.658;9.166;2023-02-01T03:48:46;4.60;1.00
6496;DHT22;3281;47.658;9.166;2023-02-01T03:51:14;4.50;1.00
6496;DHT22;3281;47.658;9.166;2023-02-01T03:53:42;4.60;1.00
6496;DHT22;3281;47.658;9.166;2023-02-01T03:56:12;4.50;1.00
6496;DHT22;3281;47.658;9.166;2023-02-01T03:58:39;4.50;1.00
6496;DHT22;3281;47.658;9.166;2023-02-01T04:01:05;4.50;1.00
6496;DHT22;3281;47.658;9.166;2023-02-01T04:03:32;4.40;1.00
6496;DHT22;3281;47.658;9.166;2023-02-01T04:05:59;4.50;1.00
6496;DHT22;3281;47.658;9.166;2023-02-01T04:08:27;4.40;1.00
6496;DHT22;3281;47.658;9.166;2023-02-01T04:10:53;4.30;1.00
6496;DHT22;3281;47.658;9.166;2023-02-01T04:13:20;4.40;1.00
6496;DHT22;3281;47.658;9.166;2023-02-01T04:15:47;4.50;1.00
6496;DHT22;3281;47.658;9.166;2023-02-01T04:18:16;4.50;1.00
6496;DHT22;3281;47.658;9.166;2023-02-01T04:20:43;4.60;1.00
6496;DHT22;3281;47.658;9.166;2023-02-01T04:23:10;4.70;1.00
6496;DHT22;3281;47.658;9.166;2023-02-01T04:25:38;4.60;1.00
6496;DHT22;3281;47.658;9.166;2023-02-01T04:28:05;4.60;1.00
6496;DHT22;3281;47.658;9.166;2023-02-01T04:30:32;4.70;1.00
6496;DHT22;3281;47.658;9.166;2023-02-01T04:32:58;4.70;1.00
6496;DHT22;3281;47.658;9.166;2023-02-01T04:35:25;4.80;1.00
6496;DHT22;3281;47.658;9.166;2023-02-01T04:37:52;4.80;1.00
6496;DHT22;3281;47.658;9.166;2023-02-01T04:40:18;4.80;1.00
6496;DHT22;3281;47.658;9.166;2023-02-01T04:42:46;4.80;1.00
6496;DHT22;3281;47.658;9.166;2023-02-01T04:45:13;4.80;1.00
6496;DHT22;3281;47.658;9.166;2023-02-01T04:47:40;4.80;1.00
6496;DHT22;3281;47.658;9.166;2023-02-01T04:50:07;4.80;1.00
6496;DHT22;3281;47.658;9.166;2023-02-01T04:52:35;4.70;1.00
6496;DHT22;3281;47.658;9.166;2023-02-01T04:55:03;4.60;1.00
6496;DHT22;3281;47.658;9.166;2023-02-01T04:57:30;4.70;1.00
6496;DHT22;3281;47.658;9.166;2023-02-01T04:59:58;4.70;1.00
6496;DHT22;3281;47.658;9.166;2023-02-01T05:02:24;4.70;1.00
6496;DHT22;3281;47.658;9.166;2023-02-01T05:04:51;4.70;1.00
6496;DHT22;3281;47.658;9.166;2023-02-01T05:07:19;4.80;1.00
6496;DHT22;3281;47.658;9.166;2023-02-01T05:09:46;4.70;1.00
6496;DHT22;3281;47.658;9.166;2023-02-01T05:12:12;4.70;1.00
6496;DHT22;3281;47.658;9.166;2023-02-01T05:14:58;4.70;1.00
6496;DHT22;3281;47.658;9.166;2023-02-01T05:17:25;4.80;1.00
6496;DHT22;3281;47.658;9.166;2023-02-01T05:19:51;4.60;1.00
6496;DHT22;3281;47.658;9.166;2023-02-01T05:22:18;4.60;1.00
6496;DHT22;3281;47.658;9.166;2023-02-01T05:24:45;4.60;1.00
6496;DHT22;3281;47.658;9.166;2023-02-01T05:27:12;4.60;1.00
6496;DHT22;3281;47.658;9.166;2023-02-01T05:29:38;4.50;1.00
6496;DHT22;3281;47.658;9.166;2023-02-01T05:32:08;4.50;1.00
6496;DHT22;3281;47.658;9.166;2023-02-01T05:34:35;4.40;1.00
6496;DHT22;3281;47.658;9.166;2023-02-01T05:37:02;4.40;1.00
6496;DHT22;3281;47.658;9.166;2023-02-01T05:39:29;4.30;1.00
6496;DHT22;3281;47.658;9.166;2023-02-01T05:41:55;4.40;1.00
6496;DHT22;3281;47.658;9.166;2023-02-01T05:44:22;4.30;1.00
6496;DHT22;3281;47.658;9.166;2023-02-01T05:46:49;4.50;1.00
6496;DHT22;3281;47.658;9.166;2023-02-01T05:49:19;4.50;1.00
6496;DHT22;3281;47.658;9.166;2023-02-01T05:51:45;4.50;1.00
6496;DHT22;3281;47.658;9.166;2023-02-01T05:54:12;4.60;1.00
6496;DHT22;3281;47.658;9.166;2023-02-01T05:56:39;4.60;1.00
6496;DHT22;3281;47.658;9.166;2023-02-01T05:59:06;4.60;1.00
6496;DHT22;3281;47.658;9.166;2023-02-01T06:01:33;4.60;1.00
6496;DHT22;3281;47.658;9.166;2023-02-01T06:04:00;4.50;1.00
6496;DHT22;3281;47.658;9.166;2023-02-01T06:06:28;4.60;1.00
6496;DHT22;3281;47.658;9.166;2023-02-01T06:08:55;4.50;1.00
6496;DHT22;3281;47.658;9.166;2023-02-01T06:11:21;4.60;1.00
6496;DHT22;3281;47.658;9.166;2023-02-01T06:13:48;4.50;1.00
6496;DHT22;3281;47.658;9.166;2023-02-01T06:16:15;4.40;1.00
6496;DHT22;3281;47.658;9.166;2023-02-01T06:18:42;4.40;1.00
6496;DHT22;3281;47.658;9.166;2023-02-01T06:21:09;4.40;1.00
6496;DHT22;3281;47.658;9.166;2023-02-01T06:23:37;4.40;1.00
6496;DHT22;3281;47.658;9.166;2023-02-01T06:26:05;4.50;1.00
6496;DHT22;3281;47.658;9.166;2023-02-01T06:28:33;4.50;1.00
6496;DHT22;3281;47.658;9.166;2023-02-01T06:31:03;4.60;1.00
6496;DHT22;3281;47.658;9.166;2023-02-01T06:33:32;4.60;1.00
6496;DHT22;3281;47.658;9.166;2023-02-01T06:35:59;4.70;1.00
6496;DHT22;3281;47.658;9.166;2023-02-01T06:38:26;4.60;1.00
6496;DHT22;3281;47.658;9.166;2023-02-01T06:40:55;4.70;1.00
6496;DHT22;3281;47.658;9.166;2023-02-01T06:43:23;4.70;1.00
6496;DHT22;3281;47.658;9.166;2023-02-01T06:45:51;4.60;1.00
6496;DHT22;3281;47.658;9.166;2023-02-01T06:48:17;4.70;1.00
6496;DHT22;3281;47.658;9.166;2023-02-01T06:50:44;4.70;1.00
6496;DHT22;3281;47.658;9.166;2023-02-01T06:53:11;4.60;1.00
6496;DHT22;3281;47.658;9.166;2023-02-01T06:55:38;4.50;1.00
6496;DHT22;3281;47.658;9.166;2023-02-01T06:58:06;4.50;1.00
6496;DHT22;3281;47.658;9.166;2023-02-01T07:00:33;4.70;1.00
6496;DHT22;3281;47.658;9.166;2023-02-01T07:03:00;4.80;1.00
6496;DHT22;3281;47.658;9.166;2023-02-01T07:05:27;4.80;1.00
6496;DHT22;3281;47.658;9.166;2023-02-01T07:07:54;4.70;1.00
6496;DHT22;3281;47.658;9.166;2023-02-01T07:10:21;4.80;1.00
6496;DHT22;3281;47.658;9.166;2023-02-01T07:12:47;4.60;1.00
6496;DHT22;3281;47.658;9.166;2023-02-01T07:15:15;4.60;1.00
6496;DHT22;3281;47.658;9.166;2023-02-01T07:17:42;4.30;1.00
6496;DHT22;3281;47.658;9.166;2023-02-01T07:20:10;4.30;1.00
6496;DHT22;3281;47.658;9.166;2023-02-01T07:22:37;4.30;1.00
6496;DHT22;3281;47.658;9.166;2023-02-01T07:25:05;4.30;1.00
6496;DHT22;3281;47.658;9.166;2023-02-01T07:27:34;4.30;1.00
6496;DHT22;3281;47.658;9.166;2023-02-01T07:30:00;4.40;1.00
6496;DHT22;3281;47.658;9.166;2023-02-01T07:32:29;4.30;1.00
6496;DHT22;3281;47.658;9.166;2023-02-01T07:34:55;4.30;1.00
6496;DHT22;3281;47.658;9.166;2023-02-01T07:37:22;4.30;1.00
6496;DHT22;3281;47.658;9.166;2023-02-01T07:39:50;4.30;1.00
6496;DHT22;3281;47.658;9.166;2023-02-01T07:42:17;4.40;1.00
6496;DHT22;3281;47.658;9.166;2023-02-01T07:44:43;4.30;1.00
6496;DHT22;3281;47.658;9.166;2023-02-01T07:47:10;4.30;1.00
6496;DHT22;3281;47.658;9.166;2023-02-01T07:49:38;4.20;1.00
6496;DHT22;3281;47.658;9.166;2023-02-01T07:52:05;4.10;1.00
6496;DHT22;3281;47.658;9.166;2023-02-01T07:54:32;4.20;1.00
6496;DHT22;3281;47.658;9.166;2023-02-01T07:56:58;4.20;1.00
6496;DHT22;3281;47.658;9.166;2023-02-01T07:59:25;4.30;1.00
6496;DHT22;3281;47.658;9.166;2023-02-01T08:01:52;4.20;1.00
6496;DHT22;3281;47.658;9.166;2023-02-01T08:04:17;4.20;1.00
6496;DHT22;3281;47.658;9.166;2023-02-01T08:06:45;4.30;1.00
6496;DHT22;3281;47.658;9.166;2023-02-01T08:09:12;4.40;1.00
6496;DHT22;3281;47.658;9.166;2023-02-01T08:11:39;4.50;1.00
6496;DHT22;3281;47.658;9.166;2023-02-01T08:14:05;4.40;1.00
6496;DHT22;3281;47.658;9.166;2023-02-01T08:16:33;4.30;1.00
6496;DHT22;3281;47.658;9.166;2023-02-01T08:19:02;4.30;1.00
6496;DHT22;3281;47.658;9.166;2023-02-01T08:21:29;4.40;1.00
6496;DHT22;3281;47.658;9.166;2023-02-01T08:24:04;4.40;1.00
6496;DHT22;3281;47.658;9.166;2023-02-01T08:26:31;4.60;1.00
6496;DHT22;3281;47.658;9.166;2023-02-01T08:29:00;4.60;1.00
6496;DHT22;3281;47.658;9.166;2023-02-01T08:31:29;4.50;1.00
6496;DHT22;3281;47.658;9.166;2023-02-01T08:33:58;4.50;1.00
6496;DHT22;3281;47.658;9.166;2023-02-01T08:36:26;4.50;1.00
6496;DHT22;3281;47.658;9.166;2023-02-01T08:38:53;4.50;1.00
6496;DHT22;3281;47.658;9.166;2023-02-01T08:41:22;4.50;1.00
6496;DHT22;3281;47.658;9.166;2023-02-01T08:43:49;4.60;1.00
6496;DHT22;3281;47.658;9.166;2023-02-01T08:46:17;4.70;1.00
6496;DHT22;3281;47.658;9.166;2023-02-01T08:48:45;4.80;1.00
6496;DHT22;3281;47.658;9.166;2023-02-01T08:51:13;4.80;1.00
6496;DHT22;3281;47.658;9.166;2023-02-01T08:53:41;4.80;1.00
6496;DHT22;3281;47.658;9.166;2023-02-01T08:56:09;4.90;1.00
6496;DHT22;3281;47.658;9.166;2023-02-01T08:58:37;4.90;1.00
6496;DHT22;3281;47.658;9.166;2023-02-01T09:01:05;4.80;1.00
6496;DHT22;3281;47.658;9.166;2023-02-01T09:03:32;4.90;1.00
6496;DHT22;3281;47.658;9.166;2023-02-01T09:06:03;4.80;1.00
6496;DHT22;3281;47.658;9.166;2023-02-01T09:08:30;4.80;1.00
6496;DHT22;3281;47.658;9.166;2023-02-01T09:11:00;4.70;1.00
6496;DHT22;3281;47.658;9.166;2023-02-01T09:13:28;4.80;1.00
6496;DHT22;3281;47.658;9.166;2023-02-01T09:15:56;4.80;1.00
6496;DHT22;3281;47.658;9.166;2023-02-01T09:18:24;4.90;1.00
6496;DHT22;3281;47.658;9.166;2023-02-01T09:20:51;4.80;1.00
6496;DHT22;3281;47.658;9.166;2023-02-01T09:23:17;4.80;1.00
6496;DHT22;3281;47.658;9.166;2023-02-01T09:25:45;4.80;1.00
6496;DHT22;3281;47.658;9.166;2023-02-01T09:28:15;4.80;1.00
6496;DHT22;3281;47.658;9.166;2023-02-01T09:30:41;4.90;1.00
6496;DHT22;3281;47.658;9.166;2023-02-01T09:33:10;4.90;1.00
6496;DHT22;3281;47.658;9.166;2023-02-01T09:35:37;5.00;1.00
6496;DHT22;3281;47.658;9.166;2023-02-01T09:38:04;5.00;1.00
6496;DHT22;3281;47.658;9.166;2023-02-01T09:40:33;5.00;1.00
6496;DHT22;3281;47.658;9.166;2023-02-01T09:43:12;5.10;1.00
6496;DHT22;3281;47.658;9.166;2023-02-01T09:45:44;5.10;1.00
6496;DHT22;3281;47.658;9.166;2023-02-01T09:48:17;5.10;1.00
6496;DHT22;3281;47.658;9.166;2023-02-01T09:50:48;5.10;1.00
6496;DHT22;3281;47.658;9.166;2023-02-01T09:53:20;5.10;1.00
6496;DHT22;3281;47.658;9.166;2023-02-01T09:55:49;5.20;1.00
6496;DHT22;3281;47.658;9.166;2023-02-01T09:58:21;5.20;1.00
6496;DHT22;3281;47.658;9.166;2023-02-01T10:00:52;5.20;1.00
6496;DHT22;3281;47.658;9.166;2023-02-01T10:03:22;5.20;1.00
6496;DHT22;3281;47.658;9.166;2023-02-01T10:06:13;5.10;1.00
6496;DHT22;3281;47.658;9.166;2023-02-01T10:09:01;5.20;1.00
6496;DHT22;3281;47.658;9.166;2023-02-01T10:11:38;5.30;1.00
6496;DHT22;3281;47.658;9.166;2023-02-01T10:14:24;5.30;1.00
6496;DHT22;3281;47.658;9.166;2023-02-01T10:17:03;5.50;1.00
6496;DHT22;3281;47.658;9.166;2023-02-01T10:19:41;5.40;1.00
6496;DHT22;3281;47.658;9.166;2023-02-01T10:22:18;5.50;1.00
6496;DHT22;3281;47.658;9.166;2023-02-01T10:24:49;5.70;1.00
6496;DHT22;3281;47.658;9.166;2023-02-01T10:27:24;5.50;1.00
6496;DHT22;3281;47.658;9.166;2023-02-01T10:29:57;5.60;1.00
6496;DHT22;3281;47.658;9.166;2023-02-01T10:32:29;5.60;1.00
6496;DHT22;3281;47.658;9.166;2023-02-01T10:34:58;5.70;1.00
6496;DHT22;3281;47.658;9.166;2023-02-01T10:37:28;5.80;1.00
6496;DHT22;3281;47.658;9.166;2023-02-01T10:39:58;5.90;1.00
6496;DHT22;3281;47.658;9.166;2023-02-01T10:42:27;6.10;1.00
6496;DHT22;3281;47.658;9.166;2023-02-01T10:44:57;6.20;1.00
6496;DHT22;3281;47.658;9.166;2023-02-01T10:47:24;6.00;1.00
6496;DHT22;3281;47.658;9.166;2023-02-01T10:49:58;6.20;1.00
6496;DHT22;3281;47.658;9.166;2023-02-01T10:52:34;6.10;1.00
6496;DHT22;3281;47.658;9.166;2023-02-01T10:55:29;6.60;1.00
6496;DHT22;3281;47.658;9.166;2023-02-01T10:57:58;7.30;1.00
6496;DHT22;3281;47.658;9.166;2023-02-01T11:00:25;7.70;1.00
6496;DHT22;3281;47.658;9.166;2023-02-01T11:02:53;8.60;1.00
6496;DHT22;3281;47.658;9.166;2023-02-01T11:05:24;8.90;1.00
6496;DHT22;3281;47.658;9.166;2023-02-01T11:07:53;8.60;1.00
6496;DHT22;3281;47.658;9.166;2023-02-01T11:10:38;9.10;1.00
6496;DHT22;3281;47.658;9.166;2023-02-01T11:13:13;9.10;1.00
6496;DHT22;3281;47.658;9.166;2023-02-01T11:15:43;8.50;1.00
6496;DHT22;3281;47.658;9.166;2023-02-01T11:18:16;8.10;1.00
6496;DHT22;3281;47.658;9.166;2023-02-01T11:20:46;8.50;1.00
6496;DHT22;3281;47.658;9.166;2023-02-01T11:23:15;8.40;1.00
6496;DHT22;3281;47.658;9.166;2023-02-01T11:25:48;8.40;1.00
6496;DHT22;3281;47.658;9.166;2023-02-01T11:28:16;8.40;1.00
6496;DHT22;3281;47.658;9.166;2023-02-01T11:30:45;8.40;1.00
6496;DHT22;3281;47.658;9.166;2023-02-01T11:33:16;8.50;1.00
6496;DHT22;3281;47.658;9.166;2023-02-01T11:35:45;8.40;1.00
6496;DHT22;3281;47.658;9.166;2023-02-01T11:38:21;8.20;1.00
6496;DHT22;3281;47.658;9.166;2023-02-01T11:40:48;7.90;1.00
6496;DHT22;3281;47.658;9.166;2023-02-01T11:43:22;8.00;1.00
6496;DHT22;3281;47.658;9.166;2023-02-01T11:45:55;7.90;1.00
6496;DHT22;3281;47.658;9.166;2023-02-01T11:48:23;8.10;1.00
6496;DHT22;3281;47.658;9.166;2023-02-01T11:53:51;7.80;1.00
6496;DHT22;3281;47.658;9.166;2023-02-01T11:56:27;7.70;1.00
6496;DHT22;3281;47.658;9.166;2023-02-01T11:59:09;7.60;1.00
6496;DHT22;3281;47.658;9.166;2023-02-01T12:01:47;7.80;1.00
6496;DHT22;3281;47.658;9.166;2023-02-01T12:04:47;7.70;1.00
6496;DHT22;3281;47.658;9.166;2023-02-01T12:07:21;7.80;1.00
6496;DHT22;3281;47.658;9.166;2023-02-01T12:10:00;8.10;1.00
6496;DHT22;3281;47.658;9.166;2023-02-01T12:12:33;8.00;1.00
6496;DHT22;3281;47.658;9.166;2023-02-01T12:15:12;8.00;1.00
6496;DHT22;3281;47.658;9.166;2023-02-01T12:18:05;8.30;1.00
6496;DHT22;3281;47.658;9.166;2023-02-01T12:20:59;8.30;1.00
6496;DHT22;3281;47.658;9.166;2023-02-01T12:23:46;8.30;1.00
6496;DHT22;3281;47.658;9.166;2023-02-01T12:26:38;8.40;1.00
6496;DHT22;3281;47.658;9.166;2023-02-01T12:29:22;8.30;1.00
6496;DHT22;3281;47.658;9.166;2023-02-01T12:32:03;8.00;1.00
6496;DHT22;3281;47.658;9.166;2023-02-01T12:34:46;7.90;1.00
6496;DHT22;3281;47.658;9.166;2023-02-01T12:37:23;8.00;1.00
6496;DHT22;3281;47.658;9.166;2023-02-01T12:40:01;8.10;1.00
6496;DHT22;3281;47.658;9.166;2023-02-01T12:42:33;7.80;1.00
6496;DHT22;3281;47.658;9.166;2023-02-01T12:45:11;7.60;1.00
6496;DHT22;3281;47.658;9.166;2023-02-01T12:47:42;7.40;1.00
6496;DHT22;3281;47.658;9.166;2023-02-01T12:50:16;7.50;1.00
6496;DHT22;3281;47.658;9.166;2023-02-01T12:52:48;7.60;1.00
6496;DHT22;3281;47.658;9.166;2023-02-01T12:55:21;7.60;1.00
6496;DHT22;3281;47.658;9.166;2023-02-01T12:57:51;7.40;1.00
6496;DHT22;3281;47.658;9.166;2023-02-01T13:00:24;7.30;1.00
6496;DHT22;3281;47.658;9.166;2023-02-01T13:02:55;7.20;1.00
6496;DHT22;3281;47.658;9.166;2023-02-01T13:05:27;7.40;1.00
6496;DHT22;3281;47.658;9.166;2023-02-01T13:07:58;7.30;1.00
6496;DHT22;3281;47.658;9.166;2023-02-01T13:10:32;7.30;1.00
6496;DHT22;3281;47.658;9.166;2023-02-01T13:13:04;7.20;1.00
6496;DHT22;3281;47.658;9.166;2023-02-01T13:15:37;7.10;1.00
6496;DHT22;3281;47.658;9.166;2023-02-01T13:18:05;7.00;1.00
6496;DHT22;3281;47.658;9.166;2023-02-01T13:20:41;7.10;1.00
6496;DHT22;3281;47.658;9.166;2023-02-01T13:23:14;7.00;1.00
6496;DHT22;3281;47.658;9.166;2023-02-01T13:25:47;7.00;1.00
6496;DHT22;3281;47.658;9.166;2023-02-01T13:28:17;7.00;1.00
6496;DHT22;3281;47.658;9.166;2023-02-01T13:30:59;7.00;1.00
6496;DHT22;3281;47.658;9.166;2023-02-01T13:33:49;6.90;1.00
6496;DHT22;3281;47.658;9.166;2023-02-01T13:36:36;6.80;1.00
6496;DHT22;3281;47.658;9.166;2023-02-01T13:39:27;6.60;1.00
6496;DHT22;3281;47.658;9.166;2023-02-01T13:42:01;6.70;1.00
6496;DHT22;3281;47.658;9.166;2023-02-01T13:44:31;6.70;1.00
6496;DHT22;3281;47.658;9.166;2023-02-01T13:47:02;6.60;1.00
6496;DHT22;3281;47.658;9.166;2023-02-01T13:49:31;6.80;1.00
6496;DHT22;3281;47.658;9.166;2023-02-01T13:52:03;6.80;1.00
6496;DHT22;3281;47.658;9.166;2023-02-01T13:54:32;6.70;1.00
6496;DHT22;3281;47.658;9.166;2023-02-01T13:57:02;6.70;1.00
6496;DHT22;3281;47.658;9.166;2023-02-01T14:02:47;6.80;1.00
6496;DHT22;3281;47.658;9.166;2023-02-01T14:08:23;6.70;1.00
6496;DHT22;3281;47.658;9.166;2023-02-01T14:10:52;6.70;1.00
6496;DHT22;3281;47.658;9.166;2023-02-01T14:13:28;6.60;1.00
6496;DHT22;3281;47.658;9.166;2023-02-01T14:16:13;6.60;1.00
6496;DHT22;3281;47.658;9.166;2023-02-01T14:18:59;6.60;1.00
6496;DHT22;3281;47.658;9.166;2023-02-01T14:21:28;6.60;1.00
6496;DHT22;3281;47.658;9.166;2023-02-01T14:23:58;6.60;1.00
6496;DHT22;3281;47.658;9.166;2023-02-01T14:26:40;6.70;1.00
6496;DHT22;3281;47.658;9.166;2023-02-01T14:29:30;6.70;1.00
6496;DHT22;3281;47.658;9.166;2023-02-01T14:32:04;6.80;1.00
6496;DHT22;3281;47.658;9.166;2023-02-01T14:34:38;6.90;1.00
6496;DHT22;3281;47.658;9.166;2023-02-01T14:37:10;6.90;1.00
6496;DHT22;3281;47.658;9.166;2023-02-01T14:39:53;6.80;1.00
6496;DHT22;3281;47.658;9.166;2023-02-01T14:42:24;6.80;1.00
6496;DHT22;3281;47.658;9.166;2023-02-01T14:44:53;6.80;1.00
6496;DHT22;3281;47.658;9.166;2023-02-01T14:47:31;6.80;1.00
6496;DHT22;3281;47.658;9.166;2023-02-01T14:50:26;6.70;1.00
6496;DHT22;3281;47.658;9.166;2023-02-01T14:53:19;6.70;1.00
6496;DHT22;3281;47.658;9.166;2023-02-01T14:55:50;6.70;1.00
6496;DHT22;3281;47.658;9.166;2023-02-01T14:58:29;6.70;1.00
6496;DHT22;3281;47.658;9.166;2023-02-01T15:01:01;6.70;1.00
6496;DHT22;3281;47.658;9.166;2023-02-01T15:03:38;6.70;1.00
6496;DHT22;3281;47.658;9.166;2023-02-01T15:06:27;6.70;1.00
6496;DHT22;3281;47.658;9.166;2023-02-01T15:08:58;6.70;1.00
6496;DHT22;3281;47.658;9.166;2023-02-01T15:11:25;6.70;1.00
6496;DHT22;3281;47.658;9.166;2023-02-01T15:13:53;6.70;1.00
6496;DHT22;3281;47.658;9.166;2023-02-01T15:16:24;6.70;1.00
6496;DHT22;3281;47.658;9.166;2023-02-01T15:19:07;6.70;1.00
6496;DHT22;3281;47.658;9.166;2023-02-01T15:21:43;6.60;1.00
6496;DHT22;3281;47.658;9.166;2023-02-01T15:24:11;6.60;1.00
6496;DHT22;3281;47.658;9.166;2023-02-01T15:26:38;6.60;1.00
6496;DHT22;3281;47.658;9.166;2023-02-01T15:29:05;6.60;1.00
6496;DHT22;3281;47.658;9.166;2023-02-01T15:31:37;6.60;1.00
6496;DHT22;3281;47.658;9.166;2023-02-01T15:34:04;6.60;1.00
6496;DHT22;3281;47.658;9.166;2023-02-01T15:36:31;6.60;1.00
6496;DHT22;3281;47.658;9.166;2023-02-01T15:39:13;6.60;1.00
6496;DHT22;3281;47.658;9.166;2023-02-01T15:41:45;6.60;1.00
6496;DHT22;3281;47.658;9.166;2023-02-01T15:44:18;6.60;1.00
6496;DHT22;3281;47.658;9.166;2023-02-01T15:46:49;6.60;1.00
6496;DHT22;3281;47.658;9.166;2023-02-01T15:49:19;6.50;1.00
6496;DHT22;3281;47.658;9.166;2023-02-01T15:51:47;6.50;1.00
6496;DHT22;3281;47.658;9.166;2023-02-01T15:54:17;6.50;1.00
6496;DHT22;3281;47.658;9.166;2023-02-01T15:56:49;6.50;1.00
6496;DHT22;3281;47.658;9.166;2023-02-01T15:59:21;6.40;1.00
6496;DHT22;3281;47.658;9.166;2023-02-01T16:01:49;6.40;1.00
6496;DHT22;3281;47.658;9.166;2023-02-01T16:04:19;6.40;1.00
6496;DHT22;3281;47.658;9.166;2023-02-01T16:06:49;6.30;1.00
6496;DHT22;3281;47.658;9.166;2023-02-01T16:09:17;6.30;1.00
6496;DHT22;3281;47.658;9.166;2023-02-01T16:11:52;6.30;1.00
6496;DHT22;3281;47.658;9.166;2023-02-01T16:14:20;6.30;1.00
6496;DHT22;3281;47.658;9.166;2023-02-01T16:16:48;6.30;1.00
6496;DHT22;3281;47.658;9.166;2023-02-01T16:19:15;6.30;1.00
6496;DHT22;3281;47.658;9.166;2023-02-01T16:21:42;6.30;1.00
6496;DHT22;3281;47.658;9.166;2023-02-01T16:24:09;6.30;1.00
6496;DHT22;3281;47.658;9.166;2023-02-01T16:26:35;6.30;1.00
6496;DHT22;3281;47.658;9.166;2023-02-01T16:29:02;6.30;1.00
6496;DHT22;3281;47.658;9.166;2023-02-01T16:31:35;6.30;1.00
6496;DHT22;3281;47.658;9.166;2023-02-01T16:34:04;6.40;1.00
6496;DHT22;3281;47.658;9.166;2023-02-01T16:36:32;6.30;1.00
6496;DHT22;3281;47.658;9.166;2023-02-01T16:38:58;6.30;1.00
6496;DHT22;3281;47.658;9.166;2023-02-01T16:41:26;6.40;1.00
6496;DHT22;3281;47.658;9.166;2023-02-01T16:43:54;6.40;1.00
6496;DHT22;3281;47.658;9.166;2023-02-01T16:46:23;6.30;1.00
6496;DHT22;3281;47.658;9.166;2023-02-01T16:48:54;6.40;1.00
6496;DHT22;3281;47.658;9.166;2023-02-01T16:51:24;6.40;1.00
6496;DHT22;3281;47.658;9.166;2023-02-01T16:53:51;6.40;1.00
6496;DHT22;3281;47.658;9.166;2023-02-01T16:56:20;6.40;1.00
6496;DHT22;3281;47.658;9.166;2023-02-01T16:58:47;6.40;1.00
6496;DHT22;3281;47.658;9.166;2023-02-01T17:01:15;6.30;1.00
6496;DHT22;3281;47.658;9.166;2023-02-01T17:03:44;6.30;1.00
6496;DHT22;3281;47.658;9.166;2023-02-01T17:06:12;6.30;1.00
6496;DHT22;3281;47.658;9.166;2023-02-01T17:08:43;6.30;1.00
6496;DHT22;3281;47.658;9.166;2023-02-01T17:11:11;6.30;1.00